Time;durP1;ratioP1;P1;durP2;ratioP2;P2;SDS_P1;SDS_P2;PMS_P1;PMS_P2;Temp;Humidity;BMP_temperature;BMP_pressure;BME280_temperature;BME280_humidity;BME280_pressure;Samples;Min_cycle;Max_cycle;Signal;HPM_P1;HPM_P2
2022/02/13 00:02:07;;;;;;;15.55;4.28;;;2.20;99.90;;;;;;4994238;28;20108;-67
2022/02/13 00:04:34;;;;;;;12.27;3.13;;;2.20;99.90;;;;;;4993204;28;20045;-67
2022/02/13 00:07:01;;;;;;;13.20;3.92;;;2.20;99.90;;;;;;4997082;28;20145;-69
2022/02/13 00:09:30;;;;;;;12.65;3.53;;;2.20;99.90;;;;;;4993999;28;20468;-66
2022/02/13 00:12:02;;;;;;;10.38;3.53;;;2.20;99.90;;;;;;4995185;28;20442;-71
2022/02/13 00:14:29;;;;;;;15.43;4.00;;;2.20;99.90;;;;;;4997401;28;20050;-65
2022/02/13 00:16:57;;;;;;;6.32;3.05;;;2.20;99.90;;;;;;5000503;28;20054;-67
2022/02/13 00:19:24;;;;;;;9.35;3.63;;;2.20;99.90;;;;;;4997187;28;20140;-65
2022/02/13 00:21:51;;;;;;;13.13;4.88;;;2.20;99.90;;;;;;4996285;28;20484;-65
2022/02/13 00:24:18;;;;;;;8.27;3.80;;;2.20;99.90;;;;;;4998264;28;20136;-65
2022/02/13 00:26:46;;;;;;;14.43;4.40;;;2.20;99.90;;;;;;4998377;28;20508;-67
2022/02/13 00:29:13;;;;;;;14.18;3.90;;;2.20;99.90;;;;;;4997810;28;20147;-66
2022/02/13 00:31:40;;;;;;;13.77;3.95;;;2.20;99.90;;;;;;4997316;28;20081;-71
2022/02/13 00:34:07;;;;;;;13.00;3.65;;;2.20;99.90;;;;;;4996252;28;20185;-72
2022/02/13 00:36:35;;;;;;;8.77;2.88;;;2.20;99.90;;;;;;4998147;28;20557;-67
2022/02/13 00:39:02;;;;;;;10.85;2.92;;;2.20;99.90;;;;;;4996129;28;20045;-66
2022/02/13 00:41:29;;;;;;;6.88;2.80;;;2.20;99.90;;;;;;4998582;28;20127;-63
2022/02/13 00:43:57;;;;;;;13.45;3.53;;;2.20;99.90;;;;;;4995130;28;20108;-67
2022/02/13 00:46:24;;;;;;;15.20;3.40;;;2.20;99.90;;;;;;4997417;28;20050;-65
2022/02/13 00:48:54;;;;;;;11.93;4.20;;;2.20;99.90;;;;;;4996847;28;20652;-70
2022/02/13 00:51:21;;;;;;;10.98;3.00;;;2.20;99.90;;;;;;4998848;28;20133;-69
2022/02/13 00:53:48;;;;;;;6.90;2.72;;;2.30;99.90;;;;;;4977421;28;20136;-69
2022/02/13 00:56:15;;;;;;;14.43;3.97;;;2.30;99.90;;;;;;4979752;28;20145;-67
2022/02/13 00:58:44;;;;;;;9.63;3.83;;;2.30;99.90;;;;;;4978064;28;20149;-67
2022/02/13 01:01:12;;;;;;;11.43;2.92;;;2.30;99.90;;;;;;4978887;28;20081;-64
2022/02/13 01:03:39;;;;;;;9.30;3.10;;;2.30;99.90;;;;;;4976814;28;20082;-68
2022/02/13 01:06:07;;;;;;;17.35;3.85;;;2.20;99.90;;;;;;4977867;28;20954;-66
2022/02/13 01:08:33;;;;;;;8.98;3.92;;;2.20;99.90;;;;;;4978811;28;20131;-68
2022/02/13 01:11:01;;;;;;;11.57;3.90;;;2.20;99.90;;;;;;4977942;28;21405;-69
2022/02/13 01:13:29;;;;;;;13.80;3.70;;;2.20;99.90;;;;;;4978259;28;20058;-65
2022/02/13 01:15:56;;;;;;;9.05;3.10;;;2.30;99.90;;;;;;4976238;28;20686;-66
2022/02/13 01:18:24;;;;;;;11.13;2.65;;;2.30;99.90;;;;;;4978945;28;20049;-66
2022/02/13 01:20:52;;;;;;;13.23;3.65;;;2.30;99.90;;;;;;4977066;28;20053;-65
2022/02/13 01:23:20;;;;;;;15.32;3.92;;;2.30;99.90;;;;;;4976705;28;20054;-65
2022/02/13 01:25:47;;;;;;;16.52;5.22;;;2.30;99.90;;;;;;4973462;28;20050;-65
2022/02/13 01:28:14;;;;;;;14.15;3.05;;;2.30;99.90;;;;;;4978295;28;20981;-63
2022/02/13 01:30:41;;;;;;;11.30;3.28;;;2.20;99.90;;;;;;4977708;28;20437;-69
2022/02/13 01:33:07;;;;;;;11.48;2.85;;;2.20;99.90;;;;;;4977687;28;20473;-67
2022/02/13 01:35:34;;;;;;;10.05;4.25;;;2.30;99.90;;;;;;4977076;28;20204;-70
2022/02/13 01:38:01;;;;;;;7.78;2.90;;;2.30;99.90;;;;;;4976069;28;20133;-66
2022/02/13 01:40:28;;;;;;;16.38;3.25;;;2.30;99.90;;;;;;4974438;28;20168;-69
2022/02/13 01:42:55;;;;;;;11.60;3.50;;;2.30;99.90;;;;;;4976642;28;20224;-68
2022/02/13 01:45:31;;;;;;;6.22;3.02;;;2.30;99.90;;;;;;3763577;28;10024238;-64
2022/02/13 01:47:58;;;;;;;10.23;2.33;;;2.30;99.90;;;;;;3107993;28;10002028;-64
2022/02/13 01:50:25;;;;;;;9.55;4.03;;;2.30;99.90;;;;;;4995487;28;20516;-65
2022/02/13 01:52:52;;;;;;;13.02;3.20;;;2.30;99.90;;;;;;4994435;28;20515;-67
2022/02/13 01:55:20;;;;;;;9.88;3.10;;;2.40;99.90;;;;;;4996169;28;21226;-64
2022/02/13 01:57:47;;;;;;;10.73;2.90;;;2.40;99.90;;;;;;4992873;28;20145;-63
2022/02/13 02:00:14;;;;;;;10.93;3.45;;;2.40;99.90;;;;;;4995982;28;20700;-66
2022/02/13 02:02:41;;;;;;;12.18;3.28;;;2.30;99.90;;;;;;4994862;28;20456;-66
2022/02/13 02:05:08;;;;;;;12.82;3.20;;;2.30;99.90;;;;;;4995280;28;20157;-67
2022/02/13 02:07:35;;;;;;;19.30;4.05;;;2.30;99.90;;;;;;4994868;28;20088;-66
2022/02/13 02:10:02;;;;;;;12.57;3.30;;;2.30;99.90;;;;;;4993283;28;20528;-64
2022/02/13 02:12:30;;;;;;;15.32;3.10;;;2.30;99.90;;;;;;4994951;28;20184;-66
2022/02/13 02:14:57;;;;;;;15.18;4.05;;;2.30;99.90;;;;;;4995877;28;20143;-67
2022/02/13 02:17:24;;;;;;;7.82;3.42;;;2.40;99.90;;;;;;4994822;28;20045;-65
2022/02/13 02:19:52;;;;;;;14.88;4.35;;;2.40;99.90;;;;;;4993877;28;20362;-66
2022/02/13 02:22:20;;;;;;;13.70;3.97;;;2.40;99.90;;;;;;4995027;28;20531;-69
2022/02/13 02:24:47;;;;;;;17.52;3.72;;;2.40;99.90;;;;;;4993742;28;20233;-68
2022/02/13 02:27:14;;;;;;;5.50;3.05;;;2.40;99.90;;;;;;4996643;28;20485;-71
2022/02/13 02:29:41;;;;;;;13.07;3.78;;;2.30;99.90;;;;;;4993609;28;20212;-66
2022/02/13 02:32:11;;;;;;;12.07;6.15;;;2.40;99.90;;;;;;4998401;28;20503;-68
2022/02/13 02:34:41;;;;;;;10.27;3.42;;;2.40;99.90;;;;;;4995329;28;20140;-65
2022/02/13 02:37:10;;;;;;;16.45;4.63;;;2.40;99.90;;;;;;4997218;28;20205;-64
2022/02/13 02:39:38;;;;;;;9.73;2.90;;;2.40;99.90;;;;;;4993223;28;20145;-66
2022/02/13 02:42:05;;;;;;;16.13;5.32;;;2.40;99.90;;;;;;4994753;28;20514;-68
2022/02/13 02:44:33;;;;;;;11.45;4.10;;;2.40;99.90;;;;;;4992246;28;20048;-69
2022/02/13 02:47:00;;;;;;;7.68;2.63;;;2.40;99.90;;;;;;4994854;28;20057;-64
2022/02/13 02:49:27;;;;;;;13.68;4.03;;;2.40;99.90;;;;;;4994259;28;20054;-66
2022/02/13 02:51:54;;;;;;;16.35;3.45;;;2.40;99.90;;;;;;4994614;28;20062;-68
2022/02/13 02:54:21;;;;;;;11.57;3.80;;;2.40;99.90;;;;;;4995591;28;21179;-71
2022/02/13 02:56:48;;;;;;;8.18;5.05;;;2.40;99.90;;;;;;4994859;28;20072;-67
2022/02/13 02:59:15;;;;;;;11.77;3.45;;;2.40;99.90;;;;;;4994377;28;20655;-68
2022/02/13 03:01:42;;;;;;;10.13;3.60;;;2.40;99.90;;;;;;4992625;28;21034;-67
2022/02/13 03:04:08;;;;;;;9.65;3.13;;;2.40;99.90;;;;;;4992465;28;20070;-67
2022/02/13 03:06:36;;;;;;;12.80;3.50;;;2.40;99.90;;;;;;4994760;28;20753;-64
2022/02/13 03:09:03;;;;;;;10.25;3.80;;;2.40;99.90;;;;;;4991625;28;21328;-68
2022/02/13 03:11:30;;;;;;;11.77;2.92;;;2.40;99.90;;;;;;4995168;28;20049;-72
2022/02/13 03:13:58;;;;;;;14.68;3.97;;;2.40;99.90;;;;;;4993956;28;20063;-66
2022/02/13 03:16:25;;;;;;;9.80;4.18;;;2.40;99.90;;;;;;4995708;28;20088;-66
2022/02/13 03:18:52;;;;;;;6.53;2.55;;;2.40;99.90;;;;;;4994440;28;20150;-69
2022/02/13 03:21:20;;;;;;;7.47;3.17;;;2.40;99.90;;;;;;4996882;28;20157;-64
2022/02/13 03:23:47;;;;;;;8.15;3.38;;;2.40;99.90;;;;;;4992487;28;20054;-66
2022/02/13 03:26:14;;;;;;;7.60;3.83;;;2.40;99.90;;;;;;4995171;28;20104;-72
2022/02/13 03:28:41;;;;;;;11.77;3.65;;;2.30;99.90;;;;;;4990805;28;20049;-70
2022/02/13 03:31:07;;;;;;;17.38;3.40;;;2.30;99.90;;;;;;4996352;28;20056;-66
2022/02/13 03:33:34;;;;;;;17.10;5.15;;;2.30;99.90;;;;;;4994922;28;20049;-68
2022/02/13 03:36:03;;;;;;;9.68;3.42;;;2.30;99.90;;;;;;4990473;28;20945;-67
2022/02/13 03:38:30;;;;;;;12.30;3.75;;;2.30;99.90;;;;;;4993507;28;20045;-65
2022/02/13 03:40:57;;;;;;;9.48;2.90;;;2.30;99.90;;;;;;4994110;28;20049;-67
2022/02/13 03:43:24;;;;;;;15.43;3.88;;;2.30;99.90;;;;;;4911952;28;20862;-66
2022/02/13 03:45:52;;;;;;;12.10;4.45;;;2.30;99.90;;;;;;344496;28;10023569;-67
2022/02/13 03:48:19;;;;;;;12.27;4.28;;;2.30;99.90;;;;;;4979840;28;20917;-70
2022/02/13 03:50:46;;;;;;;15.93;3.42;;;2.30;99.90;;;;;;4994847;28;20054;-67
2022/02/13 03:53:13;;;;;;;17.05;4.03;;;2.30;99.90;;;;;;4994496;28;20211;-66
2022/02/13 03:55:40;;;;;;;17.73;6.35;;;2.30;99.90;;;;;;4991861;28;21531;-66
2022/02/13 03:58:07;;;;;;;6.70;3.35;;;2.30;99.90;;;;;;4994958;28;20057;-65
2022/02/13 04:00:34;;;;;;;12.02;3.78;;;2.30;99.90;;;;;;4995078;28;20136;-69
2022/02/13 04:03:01;;;;;;;21.27;3.78;;;2.30;99.90;;;;;;4996019;28;20795;-69
2022/02/13 04:05:28;;;;;;;10.73;4.60;;;2.30;99.90;;;;;;4994658;28;20127;-66
2022/02/13 04:07:55;;;;;;;10.05;3.45;;;2.30;99.90;;;;;;4992802;28;20135;-69
2022/02/13 04:10:22;;;;;;;8.27;3.95;;;2.30;99.90;;;;;;4994190;28;20168;-69
2022/02/13 04:12:49;;;;;;;9.05;3.70;;;2.30;99.90;;;;;;4992518;28;20171;-66
2022/02/13 04:15:16;;;;;;;9.82;3.15;;;2.30;99.90;;;;;;4978951;28;20085;-68
2022/02/13 04:17:43;;;;;;;11.40;3.63;;;2.30;99.90;;;;;;4973851;28;20809;-68
2022/02/13 04:20:10;;;;;;;11.45;4.68;;;2.30;99.90;;;;;;4969975;28;20191;-64
2022/02/13 04:22:37;;;;;;;8.45;3.33;;;2.40;99.90;;;;;;4968462;28;20051;-65
2022/02/13 04:25:04;;;;;;;13.52;3.25;;;2.30;99.90;;;;;;4971630;28;20456;-67
2022/02/13 04:27:31;;;;;;;11.95;5.45;;;2.30;99.90;;;;;;4968379;28;20062;-71
2022/02/13 04:29:58;;;;;;;11.68;5.13;;;2.30;99.90;;;;;;4969036;28;20181;-64
2022/02/13 04:32:25;;;;;;;11.65;4.28;;;2.30;99.90;;;;;;4970127;28;20468;-69
2022/02/13 04:34:53;;;;;;;10.88;4.63;;;2.30;99.90;;;;;;4969631;28;20053;-66
2022/02/13 04:37:22;;;;;;;16.67;3.58;;;2.30;99.90;;;;;;4970849;28;20509;-68
2022/02/13 04:39:49;;;;;;;11.25;4.30;;;2.30;99.90;;;;;;4967684;28;20129;-69
2022/02/13 04:42:17;;;;;;;23.55;4.88;;;2.30;99.90;;;;;;4969221;28;20101;-63
2022/02/13 04:44:44;;;;;;;20.80;4.57;;;2.30;99.90;;;;;;4970485;28;20142;-64
2022/02/13 04:47:11;;;;;;;9.77;3.55;;;2.30;99.90;;;;;;4985879;28;20093;-67
2022/02/13 04:49:38;;;;;;;10.63;3.50;;;2.30;99.90;;;;;;4991389;28;20061;-67
2022/02/13 04:52:05;;;;;;;14.02;4.32;;;2.30;99.90;;;;;;4994464;28;20108;-66
2022/02/13 04:54:32;;;;;;;10.45;3.88;;;2.30;99.90;;;;;;4992410;28;20137;-68
2022/02/13 04:57:01;;;;;;;15.77;4.10;;;2.30;99.90;;;;;;4992754;28;20043;-66
2022/02/13 04:59:33;;;;;;;13.38;4.40;;;2.30;99.90;;;;;;5026424;28;20215;-68
2022/02/13 05:02:01;;;;;;;16.60;4.30;;;2.30;99.90;;;;;;4995833;28;20049;-64
2022/02/13 05:04:30;;;;;;;12.43;7.22;;;2.30;99.90;;;;;;4996090;28;20432;-65
2022/02/13 05:06:57;;;;;;;15.85;3.95;;;2.40;99.90;;;;;;4998409;28;20132;-67
2022/02/13 05:09:24;;;;;;;16.23;5.60;;;2.40;99.90;;;;;;4996288;28;20075;-66
2022/02/13 05:11:51;;;;;;;10.32;4.63;;;2.40;99.90;;;;;;4994590;28;20049;-65
2022/02/13 05:14:18;;;;;;;8.57;4.38;;;2.30;99.90;;;;;;4994721;28;20272;-65
2022/02/13 05:16:45;;;;;;;11.32;3.92;;;2.40;99.90;;;;;;4997374;28;20169;-63
2022/02/13 05:19:13;;;;;;;16.42;4.22;;;2.30;99.90;;;;;;4995778;28;20479;-67
2022/02/13 05:21:40;;;;;;;10.88;4.05;;;2.40;99.90;;;;;;4995797;28;20496;-64
2022/02/13 05:24:08;;;;;;;8.68;3.83;;;2.40;99.90;;;;;;4991156;28;20455;-66
2022/02/13 05:26:36;;;;;;;11.02;3.67;;;2.40;99.90;;;;;;4996675;28;20135;-67
2022/02/13 05:29:03;;;;;;;18.05;4.35;;;2.40;99.90;;;;;;4994297;28;20049;-68
2022/02/13 05:31:30;;;;;;;12.07;5.82;;;2.40;99.90;;;;;;4996089;28;20145;-66
2022/02/13 05:34:00;;;;;;;9.35;4.78;;;2.40;99.90;;;;;;4993664;28;20046;-68
2022/02/13 05:36:28;;;;;;;10.80;3.92;;;2.40;99.90;;;;;;4998379;28;21511;-64
2022/02/13 05:38:55;;;;;;;13.70;3.08;;;2.40;99.90;;;;;;4993512;28;20084;-66
2022/02/13 05:41:22;;;;;;;5.75;3.70;;;2.40;99.90;;;;;;4995286;28;20594;-68
2022/02/13 05:43:51;;;;;;;11.00;5.57;;;2.40;99.90;;;;;;4563195;28;10001138;-64
2022/02/13 05:46:18;;;;;;;10.80;3.92;;;2.40;99.90;;;;;;686229;28;10002000;-66
2022/02/13 05:48:46;;;;;;;14.85;4.28;;;2.40;99.90;;;;;;4996085;28;20869;-66
2022/02/13 05:51:14;;;;;;;22.00;5.35;;;2.40;99.90;;;;;;4993890;28;20147;-67
2022/02/13 05:53:43;;;;;;;10.05;3.83;;;2.40;99.90;;;;;;4992791;28;20058;-68
2022/02/13 05:56:10;;;;;;;9.32;3.83;;;2.40;99.90;;;;;;4995842;28;20084;-69
2022/02/13 05:58:43;;;;;;;10.68;3.75;;;2.40;99.90;;;;;;4995022;28;20073;-66
2022/02/13 06:01:10;;;;;;;13.15;3.53;;;2.40;99.90;;;;;;4996486;28;20168;-67
2022/02/13 06:03:37;;;;;;;21.83;5.00;;;2.50;99.90;;;;;;4992743;28;20478;-65
2022/02/13 06:06:04;;;;;;;11.82;4.30;;;2.50;99.90;;;;;;4995523;28;20061;-67
2022/02/13 06:08:31;;;;;;;8.75;3.25;;;2.50;99.90;;;;;;4995773;28;20128;-67
2022/02/13 06:10:57;;;;;;;8.00;3.20;;;2.50;99.90;;;;;;4996388;28;20054;-65
2022/02/13 06:13:25;;;;;;;15.82;4.63;;;2.50;99.90;;;;;;4995193;28;20058;-66
2022/02/13 06:15:52;;;;;;;8.85;4.03;;;2.50;99.90;;;;;;4995224;28;20057;-64
2022/02/13 06:18:19;;;;;;;9.93;3.92;;;2.50;99.90;;;;;;4995835;28;20089;-64
2022/02/13 06:20:46;;;;;;;10.18;3.70;;;2.50;99.90;;;;;;4995001;28;20076;-69
2022/02/13 06:23:13;;;;;;;21.52;5.75;;;2.60;99.90;;;;;;4992152;28;20046;-65
2022/02/13 06:25:40;;;;;;;10.95;3.53;;;2.50;99.90;;;;;;4994371;28;20376;-65
2022/02/13 06:28:07;;;;;;;14.32;3.95;;;2.60;99.90;;;;;;4995275;28;20232;-68
2022/02/13 06:30:34;;;;;;;8.80;4.43;;;2.60;99.90;;;;;;4998188;28;20275;-66
2022/02/13 06:33:03;;;;;;;10.07;4.50;;;2.60;99.90;;;;;;4994420;28;20466;-66
2022/02/13 06:35:31;;;;;;;16.58;5.68;;;2.60;99.90;;;;;;4992849;28;20131;-69
2022/02/13 06:38:00;;;;;;;10.95;3.53;;;2.60;99.90;;;;;;4976178;28;20096;-66
2022/02/13 06:40:28;;;;;;;11.20;4.38;;;2.60;99.90;;;;;;4994351;28;20073;-65
2022/02/13 06:42:57;;;;;;;9.50;3.58;;;2.60;99.90;;;;;;4987715;28;20055;-66
2022/02/13 06:45:24;;;;;;;13.52;4.40;;;2.60;99.90;;;;;;4993638;28;20175;-71
2022/02/13 06:47:52;;;;;;;11.07;3.85;;;2.60;99.90;;;;;;4990747;28;20053;-68
2022/02/13 06:50:19;;;;;;;8.68;4.22;;;2.70;99.90;;;;;;4993650;28;20145;-63
2022/02/13 06:52:46;;;;;;;9.27;3.97;;;2.70;99.90;;;;;;4993701;28;20061;-66
2022/02/13 06:55:15;;;;;;;7.82;3.15;;;2.70;99.90;;;;;;4992484;28;20042;-65
2022/02/13 06:57:47;;;;;;;12.13;4.60;;;2.70;99.90;;;;;;4992748;28;20046;-67
2022/02/13 07:00:15;;;;;;;14.25;4.70;;;2.70;99.90;;;;;;4992988;28;20050;-70
2022/02/13 07:02:43;;;;;;;20.67;7.07;;;2.70;99.90;;;;;;4993710;28;20149;-68
2022/02/13 07:05:11;;;;;;;12.38;4.05;;;2.70;99.90;;;;;;4990787;28;20058;-71
2022/02/13 07:07:38;;;;;;;13.80;4.70;;;2.70;99.90;;;;;;4985536;28;20085;-68
2022/02/13 07:10:08;;;;;;;15.32;5.63;;;2.70;99.90;;;;;;4989334;28;20065;-69
2022/02/13 07:12:36;;;;;;;10.43;4.30;;;2.70;99.90;;;;;;4994879;28;20062;-66
2022/02/13 07:15:05;;;;;;;16.30;4.97;;;2.80;99.90;;;;;;4992720;28;20151;-63
2022/02/13 07:17:33;;;;;;;11.75;4.60;;;2.80;99.90;;;;;;4993401;28;20435;-69
2022/02/13 07:20:00;;;;;;;17.25;5.82;;;2.80;99.90;;;;;;4990321;28;20054;-65
2022/02/13 07:22:27;;;;;;;10.75;5.50;;;2.80;99.90;;;;;;4987634;28;20516;-67
2022/02/13 07:24:54;;;;;;;14.32;5.63;;;2.80;99.90;;;;;;4988871;28;20049;-65
2022/02/13 07:27:21;;;;;;;24.25;8.55;;;2.80;99.90;;;;;;4990777;28;20081;-70
2022/02/13 07:29:48;;;;;;;9.50;5.45;;;2.80;99.90;;;;;;4988520;28;20049;-67
2022/02/13 07:32:15;;;;;;;8.45;4.00;;;2.80;99.90;;;;;;4993429;28;20159;-66
2022/02/13 07:34:42;;;;;;;14.52;6.53;;;2.80;99.90;;;;;;4992729;28;20472;-68
2022/02/13 07:37:13;;;;;;;13.80;4.15;;;2.80;99.90;;;;;;4995150;28;20057;-70
2022/02/13 07:39:40;;;;;;;13.57;5.43;;;2.90;99.90;;;;;;4990349;28;21018;-66
2022/02/13 07:42:07;;;;;;;14.05;4.63;;;2.80;99.90;;;;;;4993995;28;20400;-69
2022/02/13 07:44:37;;;;;;;15.63;4.55;;;2.80;99.90;;;;;;4991492;28;20060;-68
2022/02/13 07:47:04;;;;;;;16.20;4.93;;;2.90;99.90;;;;;;4991878;28;20123;-67
2022/02/13 07:49:31;;;;;;;17.40;8.50;;;2.90;99.90;;;;;;4989670;28;20061;-67
2022/02/13 07:51:58;;;;;;;12.98;5.10;;;2.90;99.90;;;;;;4993142;28;20435;-66
2022/02/13 07:54:27;;;;;;;10.10;4.47;;;2.90;99.90;;;;;;4993839;28;20283;-64
2022/02/13 07:56:54;;;;;;;10.73;5.07;;;2.90;99.90;;;;;;4988768;28;21112;-71
2022/02/13 07:59:21;;;;;;;14.45;4.90;;;2.90;99.90;;;;;;4994261;28;20149;-67
2022/02/13 08:01:48;;;;;;;12.23;4.45;;;2.90;99.90;;;;;;4990155;28;21404;-65
2022/02/13 08:04:15;;;;;;;23.55;6.13;;;2.90;99.90;;;;;;4972912;28;20057;-64
2022/02/13 08:07:02;;;;;;;9.85;3.85;;;2.90;99.90;;;;;;2969234;28;10004068;-68
2022/02/13 08:09:29;;;;;;;7.72;4.93;;;2.90;99.90;;;;;;2914628;28;10001294;-66
2022/02/13 08:11:56;;;;;;;13.30;5.20;;;2.90;99.90;;;;;;4989598;28;23261;-64
2022/02/13 08:14:24;;;;;;;14.32;5.60;;;2.90;99.90;;;;;;4982080;28;20230;-67
2022/02/13 08:16:51;;;;;;;15.65;4.25;;;2.90;99.90;;;;;;4988271;28;20066;-66
2022/02/13 08:19:18;;;;;;;8.93;4.22;;;2.90;99.90;;;;;;4981192;28;20054;-66
2022/02/13 08:21:45;;;;;;;8.55;4.40;;;2.90;99.90;;;;;;4983266;28;20078;-66
2022/02/13 08:24:11;;;;;;;12.65;4.30;;;2.90;99.90;;;;;;4971104;28;20542;-63
2022/02/13 08:26:38;;;;;;;7.57;4.28;;;3.00;99.90;;;;;;4976793;28;20064;-69
2022/02/13 08:29:06;;;;;;;10.85;5.85;;;3.00;99.90;;;;;;4991992;28;20176;-68
2022/02/13 08:31:33;;;;;;;13.30;5.18;;;3.00;99.90;;;;;;4990105;28;20749;-66
2022/02/13 08:34:00;;;;;;;13.80;5.25;;;3.00;99.90;;;;;;4992533;28;20053;-67
2022/02/13 08:36:27;;;;;;;14.45;6.28;;;3.00;99.90;;;;;;4993753;28;20050;-66
2022/02/13 08:38:54;;;;;;;13.27;5.50;;;3.00;99.90;;;;;;4998341;28;20147;-66
2022/02/13 08:41:21;;;;;;;15.27;5.25;;;3.00;99.90;;;;;;4996484;28;20057;-66
2022/02/13 08:43:49;;;;;;;15.52;4.30;;;3.10;99.90;;;;;;4994559;28;20189;-63
2022/02/13 08:46:16;;;;;;;13.60;4.72;;;3.10;99.90;;;;;;4998025;28;20045;-70
2022/02/13 08:48:44;;;;;;;12.40;6.40;;;3.10;99.90;;;;;;4994576;28;20145;-63
2022/02/13 08:51:11;;;;;;;10.90;6.25;;;3.10;99.90;;;;;;4996683;28;20085;-68
2022/02/13 08:53:38;;;;;;;13.45;6.38;;;3.10;99.90;;;;;;4990966;28;20057;-65
2022/02/13 08:56:06;;;;;;;11.35;4.55;;;3.10;99.90;;;;;;4995776;28;20058;-66
2022/02/13 08:58:33;;;;;;;14.13;5.60;;;3.10;99.90;;;;;;4992739;28;20168;-65
2022/02/13 09:01:00;;;;;;;8.63;4.28;;;3.10;99.90;;;;;;4995835;28;20236;-63
2022/02/13 09:03:30;;;;;;;8.88;5.82;;;3.10;99.90;;;;;;4994790;28;20224;-66
2022/02/13 09:05:57;;;;;;;11.18;4.68;;;3.10;99.90;;;;;;4994055;28;20054;-63
2022/02/13 09:08:24;;;;;;;9.13;5.53;;;3.20;99.90;;;;;;4994364;28;20140;-65
2022/02/13 09:10:51;;;;;;;17.40;5.53;;;3.10;99.90;;;;;;4994309;28;20153;-69
2022/02/13 09:13:19;;;;;;;14.02;5.13;;;3.20;99.90;;;;;;4995234;28;20054;-64
2022/02/13 09:15:45;;;;;;;13.55;5.50;;;3.20;99.90;;;;;;4991706;28;20169;-68
2022/02/13 09:18:13;;;;;;;10.30;4.90;;;3.20;99.90;;;;;;4993767;28;20065;-65
2022/02/13 09:20:44;;;;;;;17.42;6.03;;;3.30;99.90;;;;;;4996103;28;20056;-67
2022/02/13 09:23:13;;;;;;;16.35;5.03;;;3.30;99.90;;;;;;4996764;28;20148;-65
2022/02/13 09:25:41;;;;;;;13.27;5.72;;;3.30;99.90;;;;;;4992326;28;20540;-67
2022/02/13 09:28:08;;;;;;;10.93;4.57;;;3.30;99.90;;;;;;4996948;28;20247;-64
2022/02/13 09:30:35;;;;;;;16.52;4.53;;;3.40;99.90;;;;;;4993272;28;20132;-66
2022/02/13 09:33:02;;;;;;;10.27;4.85;;;3.30;99.90;;;;;;4994571;28;21006;-67
2022/02/13 09:35:29;;;;;;;8.93;5.00;;;3.30;99.90;;;;;;4992002;28;20056;-65
2022/02/13 09:37:56;;;;;;;9.63;5.20;;;3.20;99.90;;;;;;4993709;28;20060;-69
2022/02/13 09:40:32;;;;;;;14.95;5.43;;;3.20;99.90;;;;;;4991293;28;20046;-66
2022/02/13 09:43:04;;;;;;;17.50;5.22;;;3.30;99.90;;;;;;4994292;28;20060;-62
2022/02/13 09:45:32;;;;;;;9.75;6.30;;;3.30;99.90;;;;;;4992729;28;20073;-68
2022/02/13 09:48:00;;;;;;;18.40;7.55;;;3.30;99.90;;;;;;4993622;28;20053;-64
2022/02/13 09:50:28;;;;;;;15.35;4.90;;;3.30;99.90;;;;;;4993826;28;20053;-69
2022/02/13 09:52:56;;;;;;;10.32;4.50;;;3.30;99.90;;;;;;4996178;28;20056;-64
2022/02/13 09:55:29;;;;;;;14.35;5.97;;;3.30;99.90;;;;;;4995665;28;20050;-68
2022/02/13 09:58:00;;;;;;;21.90;5.85;;;3.30;99.90;;;;;;4994481;28;20053;-62
2022/02/13 10:00:53;;;;;;;14.82;5.35;;;3.30;99.90;;;;;;4997322;28;20141;-71
2022/02/13 10:03:27;;;;;;;16.48;5.60;;;3.30;99.90;;;;;;4996732;28;20107;-71
2022/02/13 10:05:55;;;;;;;15.57;5.80;;;3.30;99.90;;;;;;4992048;28;21615;-71
2022/02/13 10:08:55;;;;;;;13.30;6.28;;;3.30;99.90;;;;;;4994168;28;20132;-63
2022/02/13 10:11:27;;;;;;;11.20;5.30;;;3.30;99.90;;;;;;4924378;28;20689;-64
2022/02/13 10:14:12;;;;;;;15.85;5.45;;;3.30;99.90;;;;;;1677307;28;10023541;-69
2022/02/13 10:16:41;;;;;;;26.38;6.25;;;3.40;99.90;;;;;;4644940;28;10001479;-70
2022/02/13 10:19:15;;;;;;;15.80;6.95;;;3.30;99.90;;;;;;4993667;28;20191;-64
2022/02/13 10:21:58;;;;;;;11.05;5.70;;;3.40;99.90;;;;;;4990047;28;20140;-71
2022/02/13 10:24:29;;;;;;;17.50;7.72;;;3.40;99.90;;;;;;4997221;28;20049;-67
2022/02/13 10:26:56;;;;;;;9.38;5.00;;;3.40;99.90;;;;;;4991411;28;20053;-72
2022/02/13 10:29:29;;;;;;;14.65;5.90;;;3.40;99.90;;;;;;4994633;28;20045;-70
2022/02/13 10:32:19;;;;;;;17.13;6.88;;;3.40;99.90;;;;;;4991914;28;21030;-73
2022/02/13 10:35:10;;;;;;;11.57;4.20;;;3.40;99.90;;;;;;4995776;28;20080;-66
2022/02/13 10:37:41;;;;;;;18.77;6.75;;;3.30;99.90;;;;;;4991347;28;20411;-68
2022/02/13 10:40:12;;;;;;;15.65;5.80;;;3.30;99.90;;;;;;5009332;28;20054;-68
2022/02/13 10:42:39;;;;;;;15.70;4.72;;;3.40;99.90;;;;;;4991556;28;20180;-66
2022/02/13 10:45:27;;;;;;;12.15;5.55;;;3.40;99.90;;;;;;4994956;28;20050;-65
2022/02/13 10:48:00;;;;;;;18.90;4.32;;;3.40;99.90;;;;;;4988853;28;20149;-70
2022/02/13 10:50:32;;;;;;;9.98;4.65;;;3.40;99.90;;;;;;4993275;28;20046;-72
2022/02/13 10:53:01;;;;;;;16.42;5.38;;;3.40;99.90;;;;;;4992117;28;20111;-70
2022/02/13 10:55:31;;;;;;;17.90;5.28;;;3.40;99.90;;;;;;4993896;28;20077;-69
2022/02/13 10:57:59;;;;;;;24.25;6.63;;;3.40;99.90;;;;;;4990955;28;20140;-69
2022/02/13 11:00:30;;;;;;;13.73;5.30;;;3.40;99.90;;;;;;4992096;28;21484;-68
2022/02/13 11:03:04;;;;;;;18.60;5.55;;;3.40;99.90;;;;;;4992277;28;20139;-67
2022/02/13 11:05:32;;;;;;;14.18;5.18;;;3.40;99.90;;;;;;4994788;28;20902;-68
2022/02/13 11:08:07;;;;;;;14.77;5.72;;;3.40;99.90;;;;;;4992844;28;20050;-67
2022/02/13 11:10:44;;;;;;;14.98;5.60;;;3.40;99.90;;;;;;4995464;28;20050;-68
2022/02/13 11:13:12;;;;;;;14.65;5.18;;;3.50;99.90;;;;;;4978755;28;20070;-66
2022/02/13 11:15:42;;;;;;;12.93;5.97;;;3.50;99.90;;;;;;4971614;28;20228;-64
2022/02/13 11:18:25;;;;;;;14.82;5.50;;;3.50;99.90;;;;;;4974427;28;21417;-68
2022/02/13 11:20:55;;;;;;;17.27;6.53;;;3.40;99.90;;;;;;4984256;28;20049;-66
2022/02/13 11:23:31;;;;;;;22.15;6.03;;;3.50;99.90;;;;;;4993230;28;21500;-66
2022/02/13 11:26:03;;;;;;;14.57;6.15;;;3.50;99.90;;;;;;4992102;28;20129;-68
2022/02/13 11:28:43;;;;;;;12.73;5.90;;;3.50;99.90;;;;;;4989800;28;20479;-69
2022/02/13 11:31:32;;;;;;;12.35;5.30;;;3.60;99.90;;;;;;4992233;28;20065;-69
2022/02/13 11:33:59;;;;;;;14.73;7.32;;;3.60;99.90;;;;;;4988148;28;21367;-70
2022/02/13 11:36:41;;;;;;;10.18;5.95;;;3.70;99.90;;;;;;4993276;28;20112;-67
2022/02/13 11:39:09;;;;;;;17.10;7.25;;;3.80;99.90;;;;;;4990686;28;20251;-64
2022/02/13 11:41:50;;;;;;;13.45;5.80;;;3.80;99.90;;;;;;4994086;28;20053;-71
2022/02/13 11:44:41;;;;;;;15.15;7.63;;;3.80;99.90;;;;;;4990576;28;20119;-70
2022/02/13 11:47:11;;;;;;;14.82;5.30;;;3.80;99.90;;;;;;4995340;28;20137;-68
2022/02/13 11:50:15;;;;;;;13.60;7.82;;;3.80;99.90;;;;;;5025063;28;20057;-66
2022/02/13 11:52:53;;;;;;;12.77;5.70;;;3.90;99.90;;;;;;4985237;28;20133;-69
2022/02/13 11:55:21;;;;;;;11.85;6.25;;;3.80;99.90;;;;;;4995727;28;20053;-68
2022/02/13 11:58:12;;;;;;;14.80;7.10;;;3.80;99.90;;;;;;4993709;28;20949;-68
2022/02/13 12:00:44;;;;;;;13.75;7.43;;;3.80;99.90;;;;;;4996414;28;20045;-69
2022/02/13 12:03:15;;;;;;;18.40;6.50;;;3.80;99.90;;;;;;4993971;28;20056;-68
2022/02/13 12:05:43;;;;;;;17.10;5.97;;;3.80;99.90;;;;;;4993547;28;20431;-76
2022/02/13 12:08:10;;;;;;;11.75;5.85;;;3.80;99.90;;;;;;4996704;28;20115;-69
2022/02/13 12:10:42;;;;;;;15.48;6.38;;;3.80;99.90;;;;;;5000269;28;20069;-63
2022/02/13 12:13:16;;;;;;;13.50;5.15;;;3.70;99.90;;;;;;5002333;28;20137;-65
2022/02/13 12:15:57;;;;;;;16.33;6.43;;;3.70;99.90;;;;;;4999992;28;20124;-64
2022/02/13 12:18:25;;;;;;;17.85;7.47;;;3.70;99.90;;;;;;5001518;28;20139;-70
2022/02/13 12:21:00;;;;;;;16.67;6.60;;;3.70;99.90;;;;;;5001311;28;20064;-69
2022/02/13 12:23:29;;;;;;;15.02;5.90;;;3.60;99.90;;;;;;5001394;28;21372;-64
2022/02/13 12:25:57;;;;;;;10.98;6.22;;;3.60;99.90;;;;;;4997162;28;20371;-66
2022/02/13 12:28:33;;;;;;;13.00;6.18;;;3.60;99.90;;;;;;4998814;28;20057;-74
2022/02/13 12:31:03;;;;;;;16.77;6.90;;;3.60;99.90;;;;;;5000562;28;20050;-68
2022/02/13 12:33:34;;;;;;;12.65;5.70;;;3.60;99.90;;;;;;5001706;28;20057;-64
2022/02/13 12:36:02;;;;;;;11.18;5.55;;;3.70;99.90;;;;;;4999748;28;20461;-68
2022/02/13 12:38:30;;;;;;;16.95;7.03;;;3.70;99.90;;;;;;5000870;28;20097;-66
2022/02/13 12:40:58;;;;;;;13.27;5.72;;;3.70;99.90;;;;;;5000672;28;20050;-64
2022/02/13 12:43:26;;;;;;;14.60;5.07;;;3.70;99.90;;;;;;5000663;28;20054;-64
2022/02/13 12:45:58;;;;;;;15.15;5.78;;;3.80;99.90;;;;;;4995790;28;20157;-69
2022/02/13 12:48:28;;;;;;;20.73;8.48;;;3.70;99.90;;;;;;4995717;28;20057;-66
2022/02/13 12:50:57;;;;;;;16.33;6.75;;;3.70;99.90;;;;;;4996748;28;20132;-66
2022/02/13 12:53:29;;;;;;;20.50;7.78;;;3.60;99.90;;;;;;4996830;28;20141;-69
2022/02/13 12:56:01;;;;;;;12.60;7.38;;;3.60;99.90;;;;;;4994636;28;21041;-72
2022/02/13 12:58:32;;;;;;;12.63;6.65;;;3.60;99.90;;;;;;4992123;28;20058;-71